Time;durP1;ratioP1;P1;durP2;ratioP2;P2;SDS_P1;SDS_P2;PMS_P1;PMS_P2;Temp;Humidity;BMP_temperature;BMP_pressure;BME280_temperature;BME280_humidity;BME280_pressure;Samples;Min_cycle;Max_cycle;Signal;HPM_P1;HPM_P2
2022/05/15 00:01:44;;;;;;;;;;;;;;;21.96;57.55;98157.25;5018580;28;19925;-60
2022/05/15 00:04:10;;;;;;;;;;;;;;;21.48;59.71;98156.84;5018549;28;20025;-60
2022/05/15 00:06:39;;;;;;;;;;;;;;;22.01;60.13;98157.03;5021311;28;19926;-60
2022/05/15 00:09:05;;;;;;;;;;;;;;;22.18;59.09;98156.13;5021803;28;19929;-61
2022/05/15 00:11:31;;;;;;;;;;;;;;;22.33;58.24;98160.94;5020169;28;19932;-60
2022/05/15 00:14:02;;;;;;;;;;;;;;;22.38;57.70;98155.28;5015555;28;19925;-61
2022/05/15 00:16:29;;;;;;;;;;;;;;;22.46;57.55;98156.38;5020221;28;20358;-60
2022/05/15 00:18:56;;;;;;;;;;;;;;;22.45;57.43;98162.94;5018222;28;19961;-61
2022/05/15 00:21:22;;;;;;;;;;;;;;;22.27;57.23;98156.84;5018527;28;19993;-60
2022/05/15 00:23:48;;;;;;;;;;;;;;;21.77;59.16;98154.13;5015694;28;19926;-60
2022/05/15 00:26:15;;;;;;;;;;;;;;;21.72;61.24;98167.13;5015676;28;19932;-60
2022/05/15 00:28:41;;;;;;;;;;;;;;;21.21;62.76;98170.88;5011618;28;19929;-60
2022/05/15 00:31:09;;;;;;;;;;;;;;;20.92;64.40;98158.81;5012429;28;19932;-60
2022/05/15 00:33:35;;;;;;;;;;;;;;;20.07;70.63;98167.03;5016137;28;19936;-60
2022/05/15 00:36:04;;;;;;;;;;;;;;;20.20;71.40;98164.16;5016723;28;19989;-60
2022/05/15 00:38:30;;;;;;;;;;;;;;;20.03;73.78;98172.28;5006779;28;19930;-61
2022/05/15 00:40:57;;;;;;;;;;;;;;;20.96;70.71;98157.03;5004496;28;19941;-60
2022/05/15 00:43:37;;;;;;;;;;;;;;;21.48;66.59;98163.09;5003541;28;19925;-61
2022/05/15 00:46:04;;;;;;;;;;;;;;;21.84;63.89;98165.31;5007853;28;19936;-60
2022/05/15 00:48:32;;;;;;;;;;;;;;;21.96;62.78;98159.16;5014212;28;19926;-61
2022/05/15 00:51:00;;;;;;;;;;;;;;;22.02;62.27;98157.84;5007477;28;20000;-61
2022/05/15 00:53:27;;;;;;;;;;;;;;;22.06;62.04;98153.34;5002774;28;19925;-60
2022/05/15 00:55:53;;;;;;;;;;;;;;;22.06;61.43;98161.50;5006839;28;19928;-61
2022/05/15 00:58:22;;;;;;;;;;;;;;;22.03;61.41;98156.72;5005776;28;19933;-60
2022/05/15 01:00:48;;;;;;;;;;;;;;;21.82;62.12;98158.56;5009834;28;19934;-61
2022/05/15 01:03:16;;;;;;;;;;;;;;;21.82;62.22;98162.09;5005450;28;19948;-60
2022/05/15 01:05:45;;;;;;;;;;;;;;;21.87;62.34;98163.84;5020285;28;19993;-61
2022/05/15 01:08:11;;;;;;;;;;;;;;;21.86;61.65;98151.34;5019779;28;19932;-60
2022/05/15 01:10:40;;;;;;;;;;;;;;;21.92;61.31;98150.06;5018187;28;19985;-60
2022/05/15 01:13:08;;;;;;;;;;;;;;;21.95;60.70;98161.09;5014987;28;20029;-61
2022/05/15 01:15:36;;;;;;;;;;;;;;;21.96;60.22;98156.44;5019295;28;19933;-60
2022/05/15 01:18:03;;;;;;;;;;;;;;;21.99;60.06;98161.22;5020287;28;20006;-61
2022/05/15 01:20:30;;;;;;;;;;;;;;;22.01;60.12;98158.97;5018670;28;19926;-60
2022/05/15 01:22:58;;;;;;;;;;;;;;;21.85;60.00;98163.38;5016774;28;19994;-60
2022/05/15 01:25:27;;;;;;;;;;;;;;;21.69;61.03;98162.34;5000014;28;19982;-60
2022/05/15 01:27:55;;;;;;;;;;;;;;;21.65;61.88;98155.97;5019912;28;19926;-60
2022/05/15 01:30:22;;;;;;;;;;;;;;;21.61;61.81;98163.19;5002285;28;19926;-61
2022/05/15 01:32:48;;;;;;;;;;;;;;;21.68;61.36;98145.25;5016668;28;20555;-60
2022/05/15 01:35:14;;;;;;;;;;;;;;;21.74;61.18;98148.56;5016565;28;20044;-61
2022/05/15 01:37:41;;;;;;;;;;;;;;;21.78;61.08;98163.09;5020045;28;19944;-61
2022/05/15 01:40:09;;;;;;;;;;;;;;;21.73;61.44;98152.41;5019903;28;20008;-61
2022/05/15 01:42:36;;;;;;;;;;;;;;;21.40;63.25;98155.00;5014547;28;20336;-61
2022/05/15 01:45:02;;;;;;;;;;;;;;;21.53;63.45;98148.53;5019439;28;19926;-61
2022/05/15 01:47:29;;;;;;;;;;;;;;;21.58;63.31;98159.22;5018605;28;20025;-61
2022/05/15 01:49:55;;;;;;;;;;;;;;;21.63;63.44;98159.03;5016253;28;20001;-60
2022/05/15 01:52:21;;;;;;;;;;;;;;;21.66;63.41;98161.09;5016566;28;19997;-61
2022/05/15 01:54:47;;;;;;;;;;;;;;;21.66;63.63;98160.28;5019568;28;19921;-61
2022/05/15 01:57:16;;;;;;;;;;;;;;;21.67;63.82;98162.66;5019547;28;19925;-60
2022/05/15 01:59:42;;;;;;;;;;;;;;;21.64;63.92;98154.38;5016565;28;20004;-61
2022/05/15 02:02:08;;;;;;;;;;;;;;;21.64;63.95;98160.63;5015996;28;19993;-61
2022/05/15 02:04:35;;;;;;;;;;;;;;;21.62;64.46;98165.59;5018116;28;19926;-61
2022/05/15 02:07:01;;;;;;;;;;;;;;;21.55;64.69;98157.16;5019497;28;19933;-61
2022/05/15 02:09:28;;;;;;;;;;;;;;;21.27;65.50;98159.53;5018282;28;19984;-61
2022/05/15 02:11:54;;;;;;;;;;;;;;;21.31;65.84;98162.38;5016215;28;19933;-60
2022/05/15 02:14:22;;;;;;;;;;;;;;;21.38;65.60;98158.03;5015768;28;19930;-61
2022/05/15 02:16:48;;;;;;;;;;;;;;;21.34;65.61;98154.38;5019106;28;19930;-61
2022/05/15 02:19:14;;;;;;;;;;;;;;;21.42;64.99;98158.97;5019000;28;19926;-60
2022/05/15 02:21:41;;;;;;;;;;;;;;;21.37;64.74;98155.66;5016182;28;19996;-60
2022/05/15 02:24:08;;;;;;;;;;;;;;;21.37;64.73;98148.28;5015804;28;20564;-60
2022/05/15 02:26:34;;;;;;;;;;;;;;;21.38;64.61;98141.75;5017582;28;19961;-61
2022/05/15 02:29:00;;;;;;;;;;;;;;;21.39;64.04;98142.53;5018995;28;19937;-61
2022/05/15 02:31:28;;;;;;;;;;;;;;;21.36;64.49;98149.41;5018128;28;19932;-60
2022/05/15 02:33:55;;;;;;;;;;;;;;;21.34;64.27;98146.22;5015716;28;19968;-60
2022/05/15 02:36:24;;;;;;;;;;;;;;;21.36;64.23;98140.47;5015916;28;19930;-61
2022/05/15 02:38:50;;;;;;;;;;;;;;;21.35;64.13;98138.88;5018851;28;19984;-61
2022/05/15 02:41:17;;;;;;;;;;;;;;;21.31;64.39;98141.44;5018603;28;19937;-60
2022/05/15 02:43:43;;;;;;;;;;;;;;;21.31;64.51;98146.88;5015341;28;19932;-61
2022/05/15 02:46:10;;;;;;;;;;;;;;;21.32;64.20;98147.69;5015202;28;19926;-60
2022/05/15 02:51:21;;;;;;;;;;;;;;;21.22;64.63;98153.47;5018278;28;19964;-60
2022/05/15 02:53:49;;;;;;;;;;;;;;;21.19;64.68;98149.50;5015434;28;19926;-60
2022/05/15 02:56:17;;;;;;;;;;;;;;;21.16;64.77;98149.34;5014670;28;19936;-60
2022/05/15 02:58:46;;;;;;;;;;;;;;;21.12;65.00;98153.84;5018643;28;19972;-61
2022/05/15 03:01:13;;;;;;;;;;;;;;;21.08;65.14;98152.84;5018426;28;19926;-61
2022/05/15 03:03:41;;;;;;;;;;;;;;;21.05;65.36;98148.06;5016013;28;19936;-60
2022/05/15 03:06:08;;;;;;;;;;;;;;;21.02;65.07;98153.03;5015333;28;19932;-60
2022/05/15 03:08:35;;;;;;;;;;;;;;;20.98;65.24;98154.03;5017152;28;19964;-61
2022/05/15 03:11:01;;;;;;;;;;;;;;;20.91;65.46;98149.09;5018390;28;19941;-61
2022/05/15 03:13:28;;;;;;;;;;;;;;;20.93;65.39;98159.63;5017104;28;20028;-60
2022/05/15 03:15:54;;;;;;;;;;;;;;;20.91;65.61;98161.88;4997661;28;20005;-61
2022/05/15 03:18:20;;;;;;;;;;;;;;;20.92;65.29;98160.75;5015138;28;19967;-60
2022/05/15 03:20:49;;;;;;;;;;;;;;;20.90;65.19;98157.53;5018317;28;19925;-60
2022/05/15 03:23:15;;;;;;;;;;;;;;;20.91;65.48;98157.22;5018312;28;19921;-60
2022/05/15 03:25:42;;;;;;;;;;;;;;;20.88;65.35;98152.44;5015167;28;20033;-60
2022/05/15 03:28:10;;;;;;;;;;;;;;;20.81;65.55;98159.50;5014506;28;19985;-61
2022/05/15 03:30:36;;;;;;;;;;;;;;;20.91;65.49;98159.16;5017072;28;19930;-60
2022/05/15 03:33:03;;;;;;;;;;;;;;;20.85;65.32;98160.44;5018136;28;19951;-61
2022/05/15 03:35:29;;;;;;;;;;;;;;;20.89;65.03;98155.94;5016595;28;19931;-61
2022/05/15 03:37:57;;;;;;;;;;;;;;;20.87;65.14;98150.84;5014760;28;20005;-60
2022/05/15 03:40:23;;;;;;;;;;;;;;;20.89;65.12;98161.38;5014964;28;19929;-60
2022/05/15 03:42:49;;;;;;;;;;;;;;;20.91;64.84;98159.94;5017849;28;19926;-60
2022/05/15 03:45:16;;;;;;;;;;;;;;;20.91;64.69;98156.44;5017891;28;19932;-60
2022/05/15 03:47:46;;;;;;;;;;;;;;;20.93;64.76;98154.19;5014738;28;19989;-60
2022/05/15 03:50:12;;;;;;;;;;;;;;;20.88;64.69;98165.22;5014123;28;20027;-61
2022/05/15 03:52:38;;;;;;;;;;;;;;;20.84;64.82;98166.97;5017095;28;19989;-60
2022/05/15 03:55:07;;;;;;;;;;;;;;;20.78;65.19;98165.56;5017608;28;19926;-60
2022/05/15 03:57:34;;;;;;;;;;;;;;;20.77;64.93;98169.38;5016005;28;19989;-61
2022/05/15 04:00:00;;;;;;;;;;;;;;;20.71;65.40;98168.75;5014219;28;20016;-61
2022/05/15 04:02:26;;;;;;;;;;;;;;;20.74;65.33;98161.88;5015340;28;19983;-60
2022/05/15 04:04:53;;;;;;;;;;;;;;;20.78;65.09;98160.13;5000552;28;20390;-61
2022/05/15 04:07:19;;;;;;;;;;;;;;;20.78;65.00;98165.56;5018359;28;19932;-60
2022/05/15 04:09:45;;;;;;;;;;;;;;;20.70;64.97;98163.69;5009706;28;19926;-60
2022/05/15 04:12:13;;;;;;;;;;;;;;;20.74;64.90;98159.97;5017864;28;19930;-61
2022/05/15 04:14:40;;;;;;;;;;;;;;;20.75;65.15;98160.78;5020214;28;19981;-60
2022/05/15 04:17:06;;;;;;;;;;;;;;;20.69;65.45;98162.88;5021280;28;20091;-60
2022/05/15 04:19:34;;;;;;;;;;;;;;;20.29;67.98;98175.84;5019106;28;19926;-59
2022/05/15 04:22:03;;;;;;;;;;;;;;;20.34;68.81;98172.97;5017507;28;19926;-61
2022/05/15 04:24:29;;;;;;;;;;;;;;;20.44;68.32;98161.78;5018694;28;19933;-60
2022/05/15 04:26:55;;;;;;;;;;;;;;;20.54;67.83;98165.28;5020523;28;19929;-60
2022/05/15 04:29:24;;;;;;;;;;;;;;;20.51;67.62;98166.72;5020411;28;19937;-60
2022/05/15 04:31:55;;;;;;;;;;;;;;;20.47;67.94;98173.91;5017492;28;19926;-60
2022/05/15 04:34:21;;;;;;;;;;;;;;;20.12;68.95;98181.22;5017441;28;19926;-60
2022/05/15 04:36:48;;;;;;;;;;;;;;;19.67;72.40;98185.28;5020623;28;19925;-60
2022/05/15 04:39:15;;;;;;;;;;;;;;;18.92;78.37;98180.00;5020634;28;19926;-61
2022/05/15 04:41:41;;;;;;;;;;;;;;;19.31;78.03;98183.53;5017398;28;19929;-60
2022/05/15 04:44:08;;;;;;;;;;;;;;;19.34;77.56;98182.91;5017051;28;19927;-60
2022/05/15 04:46:36;;;;;;;;;;;;;;;18.69;81.50;98190.09;5018873;28;19956;-59
2022/05/15 04:49:03;;;;;;;;;;;;;;;18.62;83.16;98189.72;5020346;28;20188;-61
2022/05/15 04:51:30;;;;;;;;;;;;;;;19.15;80.17;98190.50;5018938;28;19922;-60
2022/05/15 04:53:57;;;;;;;;;;;;;;;19.72;76.38;98190.56;5017042;28;19930;-60
2022/05/15 04:56:23;;;;;;;;;;;;;;;19.39;77.41;98199.06;5017192;28;19926;-61
2022/05/15 04:58:49;;;;;;;;;;;;;;;19.23;79.52;98192.44;5020333;28;19933;-61
2022/05/15 05:01:17;;;;;;;;;;;;;;;19.46;78.10;98195.91;5020108;28;19925;-60
2022/05/15 05:03:45;;;;;;;;;;;;;;;19.50;77.31;98204.19;5017020;28;19926;-59
2022/05/15 05:06:14;;;;;;;;;;;;;;;19.71;76.97;98205.25;5016689;28;20033;-61
2022/05/15 05:08:40;;;;;;;;;;;;;;;19.88;75.62;98197.94;5019418;28;19930;-59
2022/05/15 05:11:07;;;;;;;;;;;;;;;19.76;75.67;98208.59;5019906;28;19975;-61
2022/05/15 05:13:33;;;;;;;;;;;;;;;19.49;77.18;98216.16;5018139;28;19932;-60
2022/05/15 05:15:59;;;;;;;;;;;;;;;19.91;75.48;98216.28;5016657;28;19981;-59
2022/05/15 05:18:26;;;;;;;;;;;;;;;19.76;74.82;98216.72;5017088;28;19932;-60
2022/05/15 05:20:53;;;;;;;;;;;;;;;19.60;76.81;98223.69;5019481;28;19963;-60
2022/05/15 05:23:20;;;;;;;;;;;;;;;19.37;77.20;98222.91;5019962;28;20001;-62
2022/05/15 05:25:46;;;;;;;;;;;;;;;19.43;77.85;98223.63;5008547;28;19926;-61
2022/05/15 05:28:12;;;;;;;;;;;;;;;19.37;77.70;98222.91;5016353;28;19940;-61
2022/05/15 05:30:38;;;;;;;;;;;;;;;19.42;78.36;98221.22;5018980;28;19957;-60
2022/05/15 05:33:05;;;;;;;;;;;;;;;19.17;79.26;98220.75;5019642;28;19921;-61
2022/05/15 05:35:31;;;;;;;;;;;;;;;19.34;79.71;98226.25;5018044;28;20001;-61
2022/05/15 05:38:03;;;;;;;;;;;;;;;19.74;76.70;98223.59;5016483;28;20020;-60
2022/05/15 05:40:29;;;;;;;;;;;;;;;20.04;75.00;98221.88;5017581;28;19989;-60
2022/05/15 05:42:55;;;;;;;;;;;;;;;20.38;72.79;98221.94;5019630;28;19921;-60
2022/05/15 05:45:22;;;;;;;;;;;;;;;20.64;70.92;98224.66;5019476;28;19956;-60
2022/05/15 05:47:49;;;;;;;;;;;;;;;20.94;69.08;98223.66;5016234;28;20028;-61
2022/05/15 05:50:16;;;;;;;;;;;;;;;20.60;71.11;98223.69;5016596;28;19937;-60
2022/05/15 05:52:43;;;;;;;;;;;;;;;20.93;69.87;98224.78;5019450;28;19997;-60
2022/05/15 05:55:12;;;;;;;;;;;;;;;21.20;68.65;98220.91;5019797;28;19981;-61
2022/05/15 05:57:39;;;;;;;;;;;;;;;21.44;67.59;98232.81;5017171;28;19992;-60
2022/05/15 06:00:10;;;;;;;;;;;;;;;21.41;67.53;98225.31;5016144;28;20002;-61
2022/05/15 06:02:36;;;;;;;;;;;;;;;20.89;70.43;98226.53;5018222;28;20414;-62
2022/05/15 06:05:01;;;;;;;;;;;;;;;21.41;68.74;98217.16;5019222;28;19934;-60
2022/05/15 06:07:28;;;;;;;;;;;;;;;21.57;68.47;98232.94;5018422;28;19946;-61
2022/05/15 06:09:55;;;;;;;;;;;;;;;21.92;66.96;98234.38;5016074;28;20404;-61
2022/05/15 06:12:25;;;;;;;;;;;;;;;21.98;66.21;98235.75;5015889;28;19936;-60
2022/05/15 06:14:52;;;;;;;;;;;;;;;22.23;65.47;98242.16;5019228;28;19925;-59
2022/05/15 06:17:20;;;;;;;;;;;;;;;22.25;65.14;98229.81;5019029;28;20030;-60
2022/05/15 06:19:46;;;;;;;;;;;;;;;22.15;65.66;98241.13;5007956;28;19926;-61
2022/05/15 06:22:12;;;;;;;;;;;;;;;22.05;65.87;98236.84;5015733;28;19993;-61
2022/05/15 06:24:39;;;;;;;;;;;;;;;22.38;65.21;98225.25;5018423;28;19993;-61
2022/05/15 06:27:05;;;;;;;;;;;;;;;22.55;64.47;98225.94;5019334;28;19925;-61
2022/05/15 06:29:33;;;;;;;;;;;;;;;22.61;64.45;98237.41;5017246;28;20000;-61
2022/05/15 06:32:00;;;;;;;;;;;;;;;22.79;64.35;98243.50;5014690;28;19932;-61
2022/05/15 06:34:26;;;;;;;;;;;;;;;22.62;64.86;98238.22;5016511;28;19969;-61
2022/05/15 06:36:53;;;;;;;;;;;;;;;22.81;64.35;98238.56;5018919;28;19992;-61
2022/05/15 06:39:19;;;;;;;;;;;;;;;23.09;63.26;98236.81;5001478;28;19993;-61
2022/05/15 06:41:46;;;;;;;;;;;;;;;23.13;62.08;98226.84;5007474;28;19993;-60
2022/05/15 06:44:12;;;;;;;;;;;;;;;22.90;62.50;98229.16;5011108;28;19922;-61
2022/05/15 06:46:40;;;;;;;;;;;;;;;22.68;64.62;98229.53;5018088;28;19954;-61
2022/05/15 06:49:06;;;;;;;;;;;;;;;22.91;64.63;98238.91;5018836;28;19945;-60
2022/05/15 06:51:33;;;;;;;;;;;;;;;23.07;64.04;98233.63;5016984;28;19988;-60
2022/05/15 06:53:59;;;;;;;;;;;;;;;22.92;64.50;98232.34;5015681;28;19925;-61
2022/05/15 06:59:09;;;;;;;;;;;;;;;22.50;64.69;98220.66;5018801;28;19960;-61
2022/05/15 07:01:35;;;;;;;;;;;;;;;22.44;64.30;98232.88;5016476;28;19933;-61
2022/05/15 07:04:03;;;;;;;;;;;;;;;22.51;64.74;98230.44;5015381;28;19929;-61
2022/05/15 07:06:30;;;;;;;;;;;;;;;23.05;64.17;98225.81;5016572;28;19989;-61
2022/05/15 07:08:57;;;;;;;;;;;;;;;23.19;62.72;98224.69;5018650;28;19957;-62
2022/05/15 07:11:23;;;;;;;;;;;;;;;23.41;61.59;98221.59;5018040;28;19929;-61
2022/05/15 07:13:50;;;;;;;;;;;;;;;23.67;60.90;98224.78;5014908;28;19973;-61
2022/05/15 07:16:16;;;;;;;;;;;;;;;23.88;60.03;98221.94;5015195;28;19926;-60
2022/05/15 07:18:42;;;;;;;;;;;;;;;23.75;59.67;98225.81;5018393;28;19925;-61
2022/05/15 07:21:10;;;;;;;;;;;;;;;23.02;60.81;98225.69;5018649;28;19997;-60
2022/05/15 07:23:37;;;;;;;;;;;;;;;23.28;61.59;98219.94;5016089;28;20031;-59
2022/05/15 07:26:03;;;;;;;;;;;;;;;23.07;57.29;98228.19;5014739;28;19936;-60
2022/05/15 07:28:29;;;;;;;;;;;;;;;22.96;60.04;98222.34;5016092;28;19930;-60
2022/05/15 07:30:56;;;;;;;;;;;;;;;22.67;60.05;98222.50;5018132;28;19957;-60
2022/05/15 07:33:24;;;;;;;;;;;;;;;23.03;57.32;98238.16;5017702;28;19934;-61
2022/05/15 07:35:50;;;;;;;;;;;;;;;23.21;58.34;98222.44;5015081;28;20020;-60
2022/05/15 07:38:18;;;;;;;;;;;;;;;22.99;59.19;98226.34;5014887;28;19926;-60
2022/05/15 07:40:44;;;;;;;;;;;;;;;23.28;58.99;98226.19;5018121;28;19961;-61
2022/05/15 07:43:12;;;;;;;;;;;;;;;23.15;56.23;98224.56;5019787;28;19932;-61
2022/05/15 07:45:38;;;;;;;;;;;;;;;23.38;59.18;98217.56;5019156;28;19926;-62
2022/05/15 07:48:04;;;;;;;;;;;;;;;23.89;58.10;98216.13;5017859;28;19989;-61
2022/05/15 07:50:31;;;;;;;;;;;;;;;24.28;57.09;98222.03;5019246;28;19926;-61
2022/05/15 07:52:59;;;;;;;;;;;;;;;24.39;56.42;98221.19;5021474;28;19992;-62
2022/05/15 07:55:27;;;;;;;;;;;;;;;24.49;56.02;98217.19;5020669;28;20350;-61
2022/05/15 07:57:54;;;;;;;;;;;;;;;24.61;55.20;98215.22;5018069;28;19932;-61
2022/05/15 08:00:20;;;;;;;;;;;;;;;24.47;54.95;98220.28;5018197;28;20031;-61
2022/05/15 08:02:47;;;;;;;;;;;;;;;23.58;54.83;98215.94;5009986;28;20012;-60
2022/05/15 08:08:01;;;;;;;;;;;;;;;23.55;58.16;98211.94;5011624;28;19968;-60
2022/05/15 08:10:30;;;;;;;;;;;;;;;23.39;56.69;98213.75;5018855;28;19997;-61
2022/05/15 08:12:56;;;;;;;;;;;;;;;22.89;55.74;98204.97;5021158;28;20060;-61
2022/05/15 08:15:23;;;;;;;;;;;;;;;22.78;57.16;98220.94;5020898;28;19989;-61
2022/05/15 08:17:49;;;;;;;;;;;;;;;22.26;55.84;98211.56;5017928;28;19976;-61
2022/05/15 08:25:43;;;;;;;;;;;;;;;23.31;56.25;98203.69;5019227;28;19971;-63
2022/05/15 08:28:09;;;;;;;;;;;;;;;23.03;54.36;98195.38;5021572;28;19926;-62
2022/05/15 08:30:36;;;;;;;;;;;;;;;22.59;55.69;98202.34;5019205;28;19932;-60
2022/05/15 08:33:03;;;;;;;;;;;;;;;22.24;56.60;98190.16;5018032;28;19929;-60
2022/05/15 08:35:30;;;;;;;;;;;;;;;22.14;56.57;98204.16;5018669;28;20000;-61
2022/05/15 08:37:56;;;;;;;;;;;;;;;22.40;56.88;98198.53;5003503;28;19925;-60
2022/05/15 08:40:24;;;;;;;;;;;;;;;22.25;57.47;98201.84;5020476;28;19925;-62
2022/05/15 08:42:56;;;;;;;;;;;;;;;22.40;57.42;98199.31;5016639;28;19925;-60
2022/05/15 08:45:24;;;;;;;;;;;;;;;22.64;58.11;98198.63;5020586;28;19961;-60
2022/05/15 08:47:57;;;;;;;;;;;;;;;23.45;55.98;98197.97;5017384;28;20544;-60
2022/05/15 08:50:27;;;;;;;;;;;;;;;22.99;55.81;98199.13;5017256;28;19989;-61
2022/05/15 08:52:55;;;;;;;;;;;;;;;23.26;55.40;98201.22;5020940;28;20001;-60
2022/05/15 08:55:24;;;;;;;;;;;;;;;22.99;56.10;98199.13;5019469;28;19930;-61
2022/05/15 08:57:54;;;;;;;;;;;;;;;22.74;55.24;98202.88;5017695;28;19932;-60
2022/05/15 09:00:22;;;;;;;;;;;;;;;22.62;56.34;98203.63;5017552;28;19926;-61
2022/05/15 09:02:48;;;;;;;;;;;;;;;22.72;55.62;98205.13;5009901;28;19926;-61
2022/05/15 09:05:15;;;;;;;;;;;;;;;22.74;56.70;98205.63;5017691;28;19930;-61
2022/05/15 09:08:00;;;;;;;;;;;;;;;22.76;56.39;98206.06;5020316;28;19932;-60
2022/05/15 09:10:30;;;;;;;;;;;;;;;22.60;57.33;98206.66;5019954;28;20595;-61
2022/05/15 09:13:00;;;;;;;;;;;;;;;23.02;57.28;98201.16;5017345;28;19925;-61
2022/05/15 09:15:29;;;;;;;;;;;;;;;23.21;55.55;98206.09;5020067;28;19993;-61
2022/05/15 09:17:58;;;;;;;;;;;;;;;23.20;55.25;98199.84;5017647;28;19926;-60
2022/05/15 09:20:33;;;;;;;;;;;;;;;23.21;54.95;98203.38;5018028;28;19977;-62
2022/05/15 09:23:00;;;;;;;;;;;;;;;23.55;54.82;98201.03;5020407;28;19986;-60
2022/05/15 09:25:26;;;;;;;;;;;;;;;23.56;53.03;98202.63;5019633;28;19982;-61
2022/05/15 09:28:04;;;;;;;;;;;;;;;23.34;52.81;98205.75;5017339;28;20169;-60
2022/05/15 09:30:35;;;;;;;;;;;;;;;23.37;53.80;98205.06;5018354;28;19929;-60
2022/05/15 09:33:02;;;;;;;;;;;;;;;23.42;52.41;98207.63;5020645;28;19936;-62
2022/05/15 09:35:31;;;;;;;;;;;;;;;23.26;51.59;98209.38;5019462;28;19937;-61
2022/05/15 09:43:30;;;;;;;;;;;;;;;23.35;52.25;98204.63;5019933;28;19932;-61
2022/05/15 09:43:33;;;;;;;;;;;;;;;23.49;51.56;98194.22;5018949;28;19987;-60
2022/05/15 09:46:05;;;;;;;;;;;;;;;23.43;51.54;98198.28;5016999;28;19926;-60
2022/05/15 09:48:36;;;;;;;;;;;;;;;23.62;52.77;98193.09;5018523;28;19994;-61
2022/05/15 09:51:08;;;;;;;;;;;;;;;23.85;51.15;98200.81;5020093;28;19929;-61
2022/05/15 09:53:38;;;;;;;;;;;;;;;24.15;51.65;98199.41;5018232;28;19928;-61
2022/05/15 09:56:07;;;;;;;;;;;;;;;24.20;49.83;98190.22;5016707;28;19957;-60
2022/05/15 09:58:39;;;;;;;;;;;;;;;24.37;51.62;98184.47;5018352;28;19934;-61
2022/05/15 10:01:14;;;;;;;;;;;;;;;23.91;49.70;98191.25;5019861;28;19926;-60
2022/05/15 10:03:40;;;;;;;;;;;;;;;23.57;50.27;98179.69;5017634;28;20005;-61
2022/05/15 10:06:08;;;;;;;;;;;;;;;24.45;50.50;98178.84;5016497;28;19925;-60
2022/05/15 10:08:35;;;;;;;;;;;;;;;24.31;49.98;98177.66;5018528;28;19928;-61
2022/05/15 10:11:03;;;;;;;;;;;;;;;23.96;50.24;98182.81;5019651;28;20016;-60
2022/05/15 10:13:34;;;;;;;;;;;;;;;23.87;50.01;98182.94;5018161;28;19925;-62
2022/05/15 10:16:06;;;;;;;;;;;;;;;23.95;49.93;98170.34;5016654;28;19936;-62
2022/05/15 10:18:38;;;;;;;;;;;;;;;24.17;50.99;98167.09;5018121;28;19926;-61
2022/05/15 10:21:04;;;;;;;;;;;;;;;24.64;51.01;98165.34;5020070;28;19930;-62
2022/05/15 10:23:38;;;;;;;;;;;;;;;24.92;49.26;98164.56;5000825;28;19997;-60
2022/05/15 10:26:09;;;;;;;;;;;;;;;25.18;50.16;98151.19;5016443;28;19929;-61
2022/05/15 10:28:39;;;;;;;;;;;;;;;25.10;48.73;98149.41;5018159;28;19926;-61
2022/05/15 10:31:10;;;;;;;;;;;;;;;24.73;48.20;98149.59;5019375;28;20418;-62
2022/05/15 10:33:38;;;;;;;;;;;;;;;24.89;47.64;98146.13;5016965;28;19925;-61
2022/05/15 10:36:08;;;;;;;;;;;;;;;24.64;47.05;98148.97;5015664;28;19926;-61
2022/05/15 10:38:43;;;;;;;;;;;;;;;24.42;48.38;98141.31;5017546;28;19934;-60
2022/05/15 10:41:16;;;;;;;;;;;;;;;24.48;47.42;98142.66;5018887;28;19992;-61
2022/05/15 10:43:58;;;;;;;;;;;;;;;24.79;48.46;98132.97;5015918;28;19993;-61
2022/05/15 10:46:34;;;;;;;;;;;;;;;25.14;47.75;98122.97;5016024;28;19925;-61
2022/05/15 10:49:06;;;;;;;;;;;;;;;24.89;44.43;98116.06;5018865;28;20020;-61
2022/05/15 10:51:35;;;;;;;;;;;;;;;24.81;45.36;98128.78;5018050;28;20641;-63
2022/05/15 10:57:24;;;;;;;;;;;;;;;24.68;42.54;98117.09;5009031;28;19926;-61
2022/05/15 10:59:54;;;;;;;;;;;;;;;25.31;40.94;98117.16;5008019;28;19926;-61
2022/05/15 11:02:41;;;;;;;;;;;;;;;24.94;40.94;98118.56;5015509;28;19953;-62
2022/05/15 11:05:10;;;;;;;;;;;;;;;24.98;41.87;98103.03;5010188;28;19961;-61
2022/05/15 11:07:40;;;;;;;;;;;;;;;25.44;43.23;98098.72;5017312;28;20005;-61
2022/05/15 11:10:09;;;;;;;;;;;;;;;25.13;41.84;98096.78;5018593;28;19961;-61
2022/05/15 11:12:39;;;;;;;;;;;;;;;25.02;42.01;98101.19;5014198;28;19926;-61
2022/05/15 11:15:15;;;;;;;;;;;;;;;25.30;39.99;98107.38;5019070;28;20001;-61
2022/05/15 11:17:47;;;;;;;;;;;;;;;25.17;38.88;98103.13;5015359;28;20020;-62
2022/05/15 11:20:16;;;;;;;;;;;;;;;25.24;39.04;98095.91;5015612;28;19925;-60
2022/05/15 11:22:46;;;;;;;;;;;;;;;25.76;41.72;98092.84;5018405;28;19965;-61
2022/05/15 11:25:16;;;;;;;;;;;;;;;25.44;39.98;98088.53;5018791;28;19926;-60
2022/05/15 11:27:46;;;;;;;;;;;;;;;25.81;43.92;98088.25;5015930;28;19999;-60
2022/05/15 11:30:15;;;;;;;;;;;;;;;26.11;43.78;98087.31;5015495;28;19926;-61
2022/05/15 11:32:58;;;;;;;;;;;;;;;25.62;38.74;98078.06;5018183;28;19936;-60
2022/05/15 11:35:31;;;;;;;;;;;;;;;25.38;39.38;98089.97;5018054;28;20007;-60
2022/05/15 11:38:13;;;;;;;;;;;;;;;25.26;39.89;98076.41;5015335;28;19953;-61
2022/05/15 11:40:41;;;;;;;;;;;;;;;25.78;42.64;98082.31;5017838;28;19936;-61
2022/05/15 11:43:26;;;;;;;;;;;;;;;26.02;42.82;98069.53;5018215;28;19926;-61
2022/05/15 11:45:53;;;;;;;;;;;;;;;26.09;39.51;98070.44;5008000;28;19957;-61
2022/05/15 11:48:22;;;;;;;;;;;;;;;25.93;38.19;98086.16;5015158;28;19933;-63
2022/05/15 11:50:54;;;;;;;;;;;;;;;25.68;37.56;98066.47;5007168;28;19926;-61
2022/05/15 11:53:26;;;;;;;;;;;;;;;25.49;38.94;98071.13;5015090;28;20425;-61
2022/05/15 11:55:52;;;;;;;;;;;;;;;25.51;37.45;98072.34;5007859;28;19926;-61
2022/05/15 11:58:26;;;;;;;;;;;;;;;25.45;37.85;98073.72;5014964;28;19926;-60
2022/05/15 12:01:05;;;;;;;;;;;;;;;25.57;38.14;98061.91;5007766;28;19933;-61
2022/05/15 12:03:50;;;;;;;;;;;;;;;25.23;37.57;98066.19;5016304;28;19985;-61
2022/05/15 12:06:18;;;;;;;;;;;;;;;25.30;39.22;98063.63;5018394;28;19933;-61
2022/05/15 12:08:49;;;;;;;;;;;;;;;25.48;37.99;98067.56;4997668;28;19928;-61
2022/05/15 12:11:29;;;;;;;;;;;;;;;25.62;40.17;98048.78;5014883;28;20610;-60
2022/05/15 12:13:57;;;;;;;;;;;;;;;25.69;37.19;98054.38;5012692;28;19926;-61
2022/05/15 12:16:26;;;;;;;;;;;;;;;25.73;38.00;98059.94;4998031;28;19997;-61
2022/05/15 12:19:03;;;;;;;;;;;;;;;25.73;38.11;98048.97;5018263;28;20032;-60
2022/05/15 12:21:36;;;;;;;;;;;;;;;25.88;40.84;98044.59;5017092;28;19929;-60
2022/05/15 12:26:51;;;;;;;;;;;;;;;25.87;39.84;98038.34;5006577;28;19936;-61
2022/05/15 12:29:27;;;;;;;;;;;;;;;26.06;38.38;98046.53;5015521;28;19989;-61
2022/05/15 12:31:54;;;;;;;;;;;;;;;25.89;36.10;98038.78;5010742;28;20489;-61
2022/05/15 12:34:24;;;;;;;;;;;;;;;25.93;38.95;98033.38;5018024;28;19996;-60
2022/05/15 12:36:52;;;;;;;;;;;;;;;26.02;39.89;98039.44;5010554;28;19926;-61
2022/05/15 12:39:22;;;;;;;;;;;;;;;26.20;37.80;98035.13;5018014;28;20017;-61
2022/05/15 12:41:48;;;;;;;;;;;;;;;25.98;38.30;98039.34;5010208;28;19985;-61
2022/05/15 12:44:15;;;;;;;;;;;;;;;26.13;39.58;98029.47;5017871;28;19932;-61
2022/05/15 12:46:43;;;;;;;;;;;;;;;26.14;38.25;98023.66;5020446;28;19988;-61
2022/05/15 12:49:10;;;;;;;;;;;;;;;26.16;38.94;98026.03;5020869;28;20000;-61
2022/05/15 12:51:39;;;;;;;;;;;;;;;26.30;38.10;98015.38;5018982;28;19921;-60
2022/05/15 12:54:20;;;;;;;;;;;;;;;25.97;40.45;98026.00;5017776;28;20553;-61
2022/05/15 12:56:58;;;;;;;;;;;;;;;26.33;39.85;98019.31;5009686;28;19930;-62
2022/05/15 12:59:26;;;;;;;;;;;;;;;26.26;38.52;98015.31;5017939;28;19943;-61
2022/05/15 13:01:52;;;;;;;;;;;;;;;26.12;40.47;98017.72;5020456;28;19932;-61
2022/05/15 13:04:20;;;;;;;;;;;;;;;26.35;40.94;98012.31;5002913;28;19932;-61
2022/05/15 13:06:52;;;;;;;;;;;;;;;26.09;39.76;98012.19;5017198;28;19930;-61
2022/05/15 13:09:20;;;;;;;;;;;;;;;26.29;39.94;98000.88;5017056;28;19937;-62
2022/05/15 13:11:50;;;;;;;;;;;;;;;26.45;39.91;98010.94;5020434;28;19981;-62
2022/05/15 13:14:19;;;;;;;;;;;;;;;26.26;38.21;98015.31;5016956;28;19969;-61
2022/05/15 13:16:47;;;;;;;;;;;;;;;26.09;38.60;98012.19;5020595;28;19932;-60